Laukaa, Finland
Kieli:  Suomi
CurCond
Päivitetty20/04/2019 10:10 
 

Lähistön Lentoasemien Säätiloja:

 

EFJY - Jyvaskyla (mil/C,) Finland
Etäisyys Sääasemalta: PKo 21km
Päivitetty: 20/04/2019 09:50
Pilvistä
Pilvistä
 Tuulen suunta varies
Tuuli: varies 0 km/h
Lämpötila: 3°C
Kastepiste: 0°C
Ilmankosteus: 81%
Ilmanpaine: 1030 hPa
Pilvisyys: Pilvistä
Näkyvyys: 10 km
Pilvisyystiedot: Pilvistä 975 m
2019/04/20 06:50 EFJY 200650Z AUTO VRB00KT 9999 OVC032 03/00 Q1030
EFHA - Halli (fin-Afb), Finland
Etäisyys Sääasemalta: Lo 56km
Päivitetty: 20/04/2019 09:50
Pilvistä
Pilvistä
 Tuulen suunta varies
Tuuli: varies 2 km/h
Lämpötila: 3°C
Kastepiste: 1°C
Ilmankosteus: 87%
Ilmanpaine: 1030 hPa
Pilvisyys: Pilvistä
Näkyvyys: 10 km
Pilvisyystiedot: Pilvistä 1036 m
2019/04/20 06:50 EFHA 200650Z AUTO VRB01KT 9999 OVC034 03/01 Q1030
EFMI - Mikkeli, Finland
Etäisyys Sääasemalta: IKa 105km
Päivitetty: 20/04/2019 09:50
Selkeätä
Selkeätä
 Tuulen suunta L
Tuuli: L 7 km/h
Lämpötila: 7°C
Tuulen purevuus: 6°C
Kastepiste: -2°C
Ilmankosteus: 53%
Ilmanpaine: 1030 hPa
Yhteenveto: Selkeätä
Näkyvyys: Enemmän Kuin 10 km
2019/04/20 06:50 EFMI 200650Z AUTO 28004KT 220V340 CAVOK 07/M02 Q1030
 
EFTP - Tampere/Pirkkala, Finland
Etäisyys Sääasemalta: Lo 135km
Päivitetty: 20/04/2019 09:50
Pilvistä
Pilvistä
 Tuulen suunta varies
Tuuli: varies 2 km/h
Lämpötila: 7°C
Kastepiste: 2°C
Ilmankosteus: 71%
Ilmanpaine: 1031 hPa
Pilvisyys: Pilvistä
Näkyvyys: 10 km
Pilvisyystiedot: Pilvistä 1463 m
2019/04/20 06:50 EFTP 200650Z AUTO VRB01KT 9999 OVC048 07/02 Q1031
EFKU - Kuopio (mil/Civ), Finland
Etäisyys Sääasemalta: Ko 146km
Päivitetty: 20/04/2019 09:50
Selkeätä
Selkeätä
 Tuulen suunta varies
Tuuli: varies 6 km/h
Lämpötila: 5°C
Kastepiste: -2°C
Ilmankosteus: 61%
Ilmanpaine: 1030 hPa
Yhteenveto: Selkeätä
Näkyvyys: Enemmän Kuin 10 km
2019/04/20 06:50 EFKU 200650Z AUTO VRB03KT CAVOK 05/M02 Q1030
EFSI - Seinajoki-Ilmajo, Finland
Etäisyys Sääasemalta: LLu 149km
Päivitetty: 20/04/2019 09:50
Selkeätä
Selkeätä
 Tuulen suunta LLo
Tuuli: LLo 4 km/h
Lämpötila: 7°C
Kastepiste: 5°C
Ilmankosteus: 87%
Ilmanpaine: 1030 hPa
Yhteenveto: Selkeätä
Näkyvyys: Enemmän Kuin 10 km
2019/04/20 06:50 EFSI 200650Z AUTO 24002KT CAVOK 07/05 Q1030